Nearby METAR Reports

 

KSJC - San Jose, California, USA
Distance from station: NE 9mi, 14km
Updated: Wed, 20-Jun-2018 6:53am EDT
Overcast
Overcast
 Wind from NW
Wind: NW 10 mph , 17 km/h
Temperature: 57°F , 14°C
Dew Point: 52°F , 11°C
Humidity: 82%
Barometer: 30.01 inHg , 1016.3 hPa
Clouds: Overcast
Visibility: 10 miles , 16 km
Cloud details: Overcast 1100 ft
2018/06/20 10:53 KSJC 201053Z AUTO 32009KT 10SM OVC011 14/11 A3001 RMK AO2 SLP162 T01390111
KNUQ - Moffett Nas/Mtn, California, USA
Distance from station: N 9mi, 14km
Updated: Wed, 20-Jun-2018 6:56am EDT
Overcast
Overcast
 Wind from NW
Wind: NW 8 mph , 13 km/h
Temperature: 55°F , 13°C
Dew Point: 52°F , 11°C
Humidity: 88%
Barometer: 30.02 inHg , 1016.6 hPa
Clouds: Overcast
Visibility: 10 miles , 16 km
Cloud details: Overcast 1200 ft
2018/06/20 10:56 KNUQ 201056Z 32007KT 10SM OVC012 13/11 A3002 RMK AO2 SLP167 T01330106
 
KPAO - Palo Alto, California, USA
Distance from station: NNW 14mi, 23km
Updated: Tue, 19-Jun-2018 11:47pm EDT
NOT Current
Clear
Clear
 Wind from NW
Wind: NW 7 mph , 11 km/h
Temperature: 59°F , 15°C
Dew Point: 54°F , 12°C
Humidity: 82%
Barometer: 30.03 inHg , 1016.9 hPa
Clouds: Clear
Visibility: 10 miles , 16 km
2018/06/20 03:47 KPAO 200347Z 32006KT 10SM SKC 15/12 A3003 RMK LAST
KRHV - San Jose/Reid, California, USA
Distance from station: ENE 12mi, 19km
Updated: Wed, 20-Jun-2018 12:47am EDT
NOT Current
Clear
Clear
 Wind from NW
Wind: NW 9 mph , 15 km/h
Temperature: 61°F , 16°C
Dew Point: 54°F , 12°C
Humidity: 77%
Barometer: 30.02 inHg , 1016.6 hPa
Clouds: Clear
Visibility: 10 miles , 16 km
2018/06/20 04:47 KRHV 200447Z 31008KT 10SM SKC 16/12 A3002 RMK LAST
 
KOAK - Oakland, California, USA
Distance from station: NNW 31mi, 50km
Updated: Wed, 20-Jun-2018 6:53am EDT
Overcast
Overcast
 Wind from W
Wind: W 14 mph , 22 km/h
Temperature: 54°F , 12°C
Dew Point: 52°F , 11°C
Humidity: 94%
Barometer: 30.02 inHg , 1016.6 hPa
Clouds: Overcast
Visibility: 10 miles , 16 km
Cloud details: Overcast 800 ft
2018/06/20 10:53 KOAK 201053Z 28012KT 10SM OVC008 12/11 A3002 RMK AO2 SLP165 T01220106
KSQL - San Carlos Airpo, California, USA
Distance from station: NW 21mi, 34km
Updated: Wed, 20-Jun-2018 7:20am EDT
Partly cloudy
Partly cloudy
 Wind from WNW
Wind: WNW 12 mph , 19 km/h
Temperature: 54°F , 12°C
Dew Point: 50°F , 10°C
Humidity: 88%
Barometer: 30.02 inHg , 1016.6 hPa
Clouds: Partly cloudy
Visibility: 10 miles , 16 km
Cloud details: Partly cloudy 900 ft
2018/06/20 11:20 KSQL 201120Z AUTO 29010KT 10SM SCT009 12/10 A3002 RMK AO2
 
KSFO - San Francisco, California, USA
Distance from station: NW 30mi, 49km
Updated: Wed, 20-Jun-2018 6:56am EDT
Overcast
Overcast
 Wind from W
Wind: W 14 mph , 22 km/h
Temperature: 55°F , 13°C
Dew Point: 48°F , 9°C
Humidity: 77%
Barometer: 30.01 inHg , 1016.3 hPa
Clouds: Overcast
Visibility: 10 miles , 16 km
Cloud details: Partly cloudy 700 ft
Overcast 1000 ft
2018/06/20 10:56 KSFO 201056Z 27012KT 10SM SCT007 OVC010 13/09 A3001 RMK AO2 SLP163 T01330094 $
KE16 - San Martin, California, USA
Distance from station: ESE 27mi, 43km
Updated: Wed, 20-Jun-2018 7:15am EDT
Partly cloudy
Partly cloudy
 Wind from NNW
Wind: NNW 9 mph , 15 km/h
Temperature: 55°F , 13°C
Dew Point: 52°F , 11°C
Humidity: 88%
Barometer: 30.01 inHg , 1016.3 hPa
Clouds: Partly cloudy
Visibility: 10 miles , 16 km
Cloud details: Partly cloudy 900 ft
2018/06/20 11:15 KE16 201115Z AUTO 33008KT 10SM SCT009 13/11 A3001 RMK AO2
 
KWVI - Watsonville, California, USA
Distance from station: SSE 27mi, 44km
Updated: Wed, 20-Jun-2018 7:06am EDT
Mist, Overcast
Mist, Overcast
 Wind from calm
Wind: Calm
Temperature: 54°F , 12°C
Dew Point: 54°F , 12°C
Humidity: 100%
Barometer: 30.00 inHg , 1015.9 hPa
Summary: Mist
Clouds: Overcast
Visibility: 1 3/4 miles , 5 km
Cloud details: Overcast 300 ft
2018/06/20 11:06 KWVI 201106Z AUTO 00000KT 1 3/4SM BR OVC003 12/12 A3000 RMK AO2 T01170117
KHAF - Half Moon Bay, California, USA
Distance from station: WNW 31mi, 50km
Updated: Wed, 20-Jun-2018 7:15am EDT
Overcast
Overcast
 Wind from NW
Wind: NW 10 mph , 17 km/h
Temperature: 54°F , 12°C
Dew Point: 50°F , 10°C
Humidity: 88%
Barometer: 30.03 inHg , 1016.9 hPa
Clouds: Overcast
Visibility: 7 miles , 11 km
Cloud details: Overcast 600 ft
2018/06/20 11:15 KHAF 201115Z AUTO 31009KT 7SM OVC006 12/10 A3003 RMK AO2
 
KHWD - Hayward, California, USA
Distance from station: N 28mi, 44km
Updated: Wed, 20-Jun-2018 7:22am EDT
Overcast
Overcast
 Wind from NW
Wind: NW 8 mph , 13 km/h
Temperature: 55°F , 13°C
Dew Point: 50°F , 10°C
Humidity: 82%
Barometer: 30.01 inHg , 1016.3 hPa
Clouds: Overcast
Visibility: 10 miles , 16 km
Cloud details: Overcast 1000 ft
2018/06/20 11:22 KHWD 201122Z 32007KT 10SM OVC010 13/10 A3001 RMK AO2 T01330100
KLVK - Livermore, California, USA
Distance from station: NNE 31mi, 51km
Updated: Wed, 20-Jun-2018 6:53am EDT
Clear
Clear
 Wind from WNW
Wind: WNW 10 mph , 17 km/h
Temperature: 54°F , 12°C
Dew Point: 54°F , 12°C
Humidity: 100%
Barometer: 29.99 inHg , 1015.6 hPa
Clouds: Clear
Visibility: 10 miles , 16 km
2018/06/20 10:53 KLVK 201053Z AUTO 29009KT 10SM CLR 12/12 A2999 RMK AO2 SLP151 T01220122